Terminal Aerodrome Forecast
Issued by NWS Nashville, TN

Home | Current Version | Previous Version | Text Only | Print | Product List | Glossary On
Versions: 1 2 3 4 5 6 7 8 9 10 11 12 13 14 15 16 17 18 19 20 21
000
FTUS44 KOHX 020500
TAFCSV
TAF
KCSV 020536Z 0206/0306 17007KT P6SM BKN080
     FM021500 18009G16KT P6SM VCSH BKN035
     FM021800 18012G25KT P6SM BKN050=

USA.gov is the U.S. government's official web portal to all federal, state and local government web resources and services.